Camp Elliot (770) Station Data

Red Flag Warning: No
Fire Weather Zone: 243
SDGE Region: Beach Cities
Lat/Lon: 32.852/-117.118

Observations

Time Wind Speed/Gust Temp(F) RH Fuel Moist Fuel Temp(F) Dewpt(F) Tmax(F) Tmin(F) Accum Precip 10-min Precip SL Press(mb)
3/29 8:00am 12 3 G 6 60° 44% - - 37° 60° 49.1° - - -
3/29 7:50am 36 4 G 6 59° 44% - - 37° 59° 49.1° - - -
3/29 7:40am 32 5 G 8 57° 47% - - 37° 57.9° 49.1° - - -
3/29 7:20am 44 4 G 7 55° 51% - - 37° 57.7° 49.1° - - -
3/29 7:10am 48 4 G 6 54° 53% - - 37° 57.7° 49.1° - - -
3/29 7:00am 51 4 G 6 54° 52% - - 37° 57.7° 49.1° - - -
3/29 6:50am 56 5 G 9 54° 53% - - 37° 57.7° 49.1° - - -
3/29 6:40am 60 4 G 6 53° 56% - - 38° 57.7° 49.1° - - -
3/29 6:30am 58 5 G 7 53° 57% - - 38° 57.7° 49.1° - - -
3/29 6:20am 75 5 G 6 52° 60% - - 39° 57.7° 49.1° - - -
3/29 6:10am 94 4 G 6 53° 60% - - 39° 57.7° 49.1° - - -
3/29 6:00am 73 3 G 7 54° 57% - - 39° 57.7° 49.1° - - -
3/29 5:50am 49 4 G 6 54° 57% - - 39° 57.7° 49.1° - - -
3/29 5:40am 57 4 G 7 53° 59% - - 40° 57.7° 49.1° - - -
3/29 5:30am 55 4 G 6 53° 61% - - 40° 57.7° 49.1° - - -
3/29 5:20am 49 3 G 5 53° 61% - - 40° 57.7° 49.1° - - -
3/29 5:10am 56 4 G 6 53° 61% - - 40° 57.7° 49.1° - - -
3/29 5:00am 87 3 G 4 52° 63% - - 40° 57.7° 49.1° - - -
3/29 4:50am 91 3 G 4 53° 63% - - 40° 57.7° 49.1° - - -
3/29 4:40am 70 5 G 7 52° 65% - - 40° 57.7° 49.1° - - -
3/29 4:30am 35 3 G 6 51° 66% - - 40° 57.7° 49.1° - - -
3/29 4:20am 323 3 G 4 50° 69% - - 40° 57.7° 49.1° - - -
3/29 4:10am 293 2 G 7 52° 63% - - 40° 57.7° 49.2° - - -
3/29 4:00am 33 3 G 4 52° 63% - - 40° 57.7° 51.7° - - -
3/29 3:50am 22 4 G 5 53° 60% - - 40° 57.7° 51.9° - - -
3/29 3:40am 35 2 G 4 54° 59% - - 40° 57.7° 53.5° - - -
3/29 3:30am 35 2 G 4 54° 59% - - 40° 57.7° 53.7° - - -
3/29 3:20am 36 0 G 2 54° 60% - - 41° 57.7° 53.7° - - -
3/29 3:10am 38 1 G 4 55° 59% - - 41° 57.7° 53.8° - - -
3/29 3:00am 74 3 G 4 55° 60% - - 41° 57.7° 53.8° - - -
3/29 2:50am 81 4 G 6 54° 61% - - 41° 57.7° 53.8° - - -
3/29 2:40am 96 3 G 7 55° 58% - - 41° 57.7° 53.8° - - -
3/29 2:30am 61 5 G 7 55° 57% - - 41° 57.7° 54.8° - - -
3/29 2:20am 80 4 G 6 55° 56% - - 40° 57.7° 54.9° - - -
3/29 2:10am 68 4 G 7 56° 55% - - 40° 57.7° 55.2° - - -
3/29 2:00am 64 4 G 6 56° 55% - - 40° 57.7° 55.2° - - -
3/29 1:50am 45 2 G 4 56° 56% - - 40° 57.7° 55.2° - - -
3/29 1:40am 59 5 G 7 56° 56% - - 40° 57.7° 55.3° - - -
3/29 1:30am 57 5 G 7 56° 55% - - 40° 57.7° 55.3° - - -
3/29 1:20am 57 4 G 9 56° 56% - - 40° 57.7° 55.3° - - -
3/29 1:10am 64 4 G 7 56° 56% - - 40° 57.7° 55.3° - - -
3/29 1:00am 63 4 G 6 56° 56% - - 40° 57.7° 55.3° - - -
3/29 12:50am 35 2 G 4 56° 55% - - 40° 57.7° 55.3° - - -
3/29 12:40am 68 3 G 4 57° 52% - - 40° 57.7° 55.3° - - -
3/29 12:30am 87 4 G 5 57° 52% - - 40° 57.5° 55.3° - - -
3/29 12:20am 52 3 G 5 56° 52% - - 39° 56.7° 55.3° - - -
3/29 12:10am 49 1 G 3 56° 51% - - 38° 56.7° 55.5° - - -
3/29 12:00am 44 4 G 5 57° 48% - - 38° 69° 49.2° - - -
3/28 11:50pm 54 3 G 4 57° 47% - - 37° 69° 49.2° - - -
3/28 11:40pm 54 2 G 3 57° 47% - - 37° 69° 49.2° - - -
3/28 11:30pm 68 3 G 5 57° 47% - - 37° 69° 49.2° - - -
3/28 11:20pm 67 3 G 4 57° 47% - - 37° 69° 49.2° - - -
3/28 11:10pm 72 3 G 4 57° 48% - - 37° 69° 49.2° - - -
3/28 11:00pm 79 2 G 4 57° 49% - - 38° 69° 49.2° - - -
3/28 10:50pm 43 4 G 5 57° 48% - - 38° 69° 49.2° - - -
3/28 10:40pm 42 4 G 5 58° 47% - - 37° 69° 49.2° - - -
3/28 10:30pm 38 2 G 4 57° 48% - - 37° 69° 49.2° - - -
3/28 10:20pm 48 1 G 2 57° 49% - - 38° 69° 49.2° - - -
3/28 10:10pm 38 2 G 4 57° 49% - - 38° 69° 49.2° - - -
3/28 10:00pm 62 2 G 3 58° 48% - - 38° 69° 49.2° - - -
3/28 9:50pm 43 2 G 3 58° 48% - - 38° 69° 49.2° - - -
3/28 9:40pm 76 3 G 4 58° 48% - - 38° 69° 49.2° - - -
3/28 9:30pm 75 2 G 3 58° 48% - - 38° 69° 49.2° - - -
3/28 9:20pm 69 2 G 3 58° 47% - - 38° 69° 49.2° - - -
3/28 9:10pm 75 2 G 3 59° 47% - - 38° 69° 49.2° - - -
3/28 9:00pm 85 2 G 3 59° 45% - - 38° 69° 49.2° - - -
3/28 8:50pm 56 3 G 4 60° 45% - - 38° 69° 49.2° - - -
3/28 8:40pm 76 2 G 3 60° 44% - - 38° 69° 49.2° - - -
3/28 8:30pm 61 2 G 3 61° 43% - - 38° 69° 49.2° - - -
3/28 8:20pm 82 2 G 2 61° 42% - - 37° 69° 49.2° - - -
3/28 8:10pm 263 1 G 2 61° 38% - - 35° 69° 49.2° - - -
3/28 8:00pm 264 1 G 2 61° 37% - - 35° 69° 49.2° - - -
3/28 7:50pm 254 1 G 3 62° 37% - - 35° 69° 49.2° - - -
3/28 7:40pm 298 2 G 4 62° 37% - - 35° 69° 49.2° - - -
3/28 7:30pm 292 3 G 5 63° 36% - - 35° 69° 49.2° - - -
3/28 7:20pm 279 3 G 4 63° 36% - - 35° 69° 49.2° - - -
3/28 7:10pm 255 3 G 4 63° 37% - - 36° 69° 49.2° - - -
3/28 7:00pm 250 4 G 5 63° 38% - - 37° 69° 49.2° - - -
3/28 6:50pm 255 4 G 7 63° 37% - - 36° 69° 49.2° - - -
3/28 6:40pm 285 5 G 9 64° 34% - - 35° 69° 49.2° - - -
3/28 6:30pm 287 6 G 9 65° 33% - - 35° 69° 49.2° - - -
3/28 6:20pm 291 7 G 11 65° 32% - - 34° 69° 49.2° - - -
3/28 6:10pm 313 6 G 10 65° 34% - - 36° 69° 49.2° - - -
3/28 6:00pm 309 7 G 11 65° 37% - - 38° 69° 49.2° - - -
3/28 5:50pm 305 8 G 12 66° 38% - - 39° 69° 49.2° - - -
3/28 5:40pm 292 8 G 13 66° 36% - - 38° 69° 49.2° - - -
3/28 5:30pm 302 9 G 12 66° 40% - - 41° 69° 49.2° - - -
3/28 5:20pm 296 9 G 13 65° 40% - - 40° 69° 49.2° - - -
3/28 5:10pm 286 9 G 14 66° 43% - - 42° 69° 49.2° - - -
3/28 5:00pm 287 9 G 14 66° 41% - - 41° 69° 49.2° - - -
3/28 4:50pm 293 10 G 17 66° 38% - - 39° 69° 49.2° - - -
3/28 4:40pm 285 9 G 14 66° 40% - - 41° 69° 49.2° - - -
3/28 4:30pm 284 10 G 15 67° 40% - - 42° 69° 49.2° - - -
3/28 4:20pm 286 9 G 15 67° 39% - - 41° 69° 49.2° - - -
3/28 4:10pm 308 8 G 13 68° 34% - - 38° 69° 49.2° - - -
3/28 4:00pm 302 8 G 13 68° 35% - - 39° 69° 49.2° - - -
3/28 3:50pm 292 8 G 13 68° 34% - - 38° 69° 49.2° - - -
3/28 3:40pm 296 8 G 14 68° 34% - - 38° 69° 49.2° - - -
3/28 3:30pm 305 9 G 13 67° 33% - - 37° 69° 49.2° - - -
3/28 3:20pm 309 8 G 14 68° 36% - - 40° 69° 49.2° - - -
3/28 3:10pm 288 8 G 13 68° 38% - - 41° 69° 49.2° - - -
3/28 3:00pm 290 8 G 16 68° 38% - - 42° 69° 49.2° - - -
3/28 2:50pm 280 8 G 15 68° 38% - - 42° 69° 49.2° - - -
3/28 2:40pm 275 7 G 12 68° 38% - - 41° 69° 49.2° - - -
3/28 2:30pm 283 7 G 14 68° 38% - - 41° 69° 49.2° - - -
3/28 2:20pm 284 7 G 12 67° 39% - - 42° 68.6° 49.2° - - -
3/28 2:10pm 296 7 G 14 68° 40% - - 42° 68.2° 49.2° - - -
3/28 2:00pm 298 7 G 12 67° 40% - - 42° 68.1° 49.2° - - -
3/28 1:50pm 315 8 G 13 67° 42% - - 43° 68.1° 49.2° - - -
3/28 1:40pm 299 9 G 14 66° 43% - - 43° 68.1° 49.2° - - -
3/28 1:30pm 297 9 G 14 66° 42% - - 43° 68.1° 49.2° - - -
3/28 1:20pm 298 9 G 15 67° 47% - - 46° 68.1° 49.2° - - -
3/28 1:10pm 302 8 G 16 67° 48% - - 47° 68.1° 49.2° - - -
3/28 1:00pm 309 6 G 11 67° 45% - - 45° 68.1° 49.2° - - -
3/28 12:50pm 308 8 G 12 67° 45% - - 45° 68.1° 49.2° - - -
3/28 12:40pm 322 7 G 11 67° 44% - - 45° 68.1° 49.2° - - -
3/28 12:30pm 321 7 G 10 67° 45% - - 45° 68.1° 49.2° - - -
3/28 12:20pm 298 7 G 12 67° 45% - - 45° 68.1° 49.2° - - -
3/28 12:10pm 327 6 G 12 67° 43% - - 44° 68.1° 49.2° - - -
3/28 12:00pm 306 4 G 10 67° 40% - - 42° 68.1° 49.2° - - -
3/28 11:50am 311 5 G 11 67° 42% - - 43° 67.6° 49.2° - - -
3/28 11:40am 306 5 G 11 66° 43% - - 43° 67.6° 49.2° - - -
3/28 11:30am 328 6 G 12 67° 42% - - 43° 67.6° 49.2° - - -
3/28 11:20am 304 6 G 11 66° 39% - - 40° 66.8° 49.2° - - -
3/28 11:10am 331 5 G 9 66° 40% - - 41° 66.8° 49.2° - - -
3/28 11:00am 324 6 G 10 65° 44% - - 42° 65.4° 49.2° - - -
3/28 10:50am 308 5 G 11 64° 47% - - 44° 65.2° 49.2° - - -
3/28 10:40am 309 5 G 11 64° 49% - - 44° 64.6° 49.2° - - -
3/28 10:30am 314 5 G 11 63° 51% - - 45° 64° 49.2° - - -
3/28 10:20am 299 4 G 8 62° 55% - - 46° 62.9° 49.2° - - -
3/28 10:10am 330 4 G 8 61° 57% - - 46° 62° 49.2° - - -
3/28 10:00am 303 3 G 6 61° 61% - - 48° 62° 49.2° - - -
3/28 9:50am 298 3 G 7 60° 63% - - 47° 60.9° 49.2° - - -
3/28 9:40am 340 3 G 7 60° 63% - - 47° 60.3° 49.2° - - -
3/28 9:30am 5 3 G 5 59° 64% - - 47° 59.9° 49.2° - - -
3/28 9:20am 10 3 G 5 59° 66% - - 47° 59.4° 49.2° - - -
3/28 9:10am 1 2 G 5 59° 66% - - 47° 59.4° 49.2° - - -
3/28 9:00am 11 1 G 4 59° 66% - - 47° 59.3° 49.2° - - -
3/28 8:50am 47 2 G 4 58° 68% - - 47° 58° 49.2° - - -
3/28 8:40am 101 1 G 3 56° 73% - - 48° 57.6° 49.2° - - -
3/28 8:30am 80 2 G 4 54° 79% - - 48° 55.4° 49.2° - - -
3/28 8:20am 177 2 G 5 54° 86% - - 50° 54.2° 49.2° - - -
3/28 8:10am 87 3 G 5 52° 88% - - 49° 53.8° 49.2° - - -
3/28 8:00am 100 4 G 6 52° 89% - - 49° 53.8° 49.2° - - -
3/28 7:50am 97 3 G 5 51° 90% - - 49° 53.8° 49.2° - - -
3/28 7:40am 102 3 G 6 51° 91% - - 49° 53.8° 49.2° - - -
3/28 7:30am 59 5 G 9 51° 92% - - 49° 53.8° 49.2° - - -
3/28 7:20am 56 7 G 10 50° 93% - - 49° 53.8° 49.2° - - -
3/28 7:10am 60 4 G 7 50° 94% - - 49° 53.8° 49.2° - - -
3/28 7:00am 68 4 G 5 50° 95% - - 49° 53.8° 49.2° - - -
3/28 6:50am 88 4 G 5 50° 96% - - 49° 53.8° 49.2° - - -
3/28 6:40am 71 3 G 4 49° 95% - - 48° 53.8° 49.2° - - -
3/28 6:30am 96 3 G 5 51° 93% - - 49° 53.8° 49.4° - - -
3/28 6:20am 63 4 G 6 51° 94% - - 50° 53.8° 50.2° - - -
3/28 6:10am 43 5 G 6 51° 95% - - 50° 53.8° 50.2° - - -
3/28 6:00am 45 4 G 7 51° 95% - - 50° 53.8° 50.2° - - -